createdAt,value
2022-08-14T00:00:23.117Z,93.60
2022-08-14T00:07:07.011Z,93.30
2022-08-14T00:13:51.734Z,93.80
2022-08-14T00:20:42.858Z,93.60
2022-08-14T00:27:25.734Z,93.10
2022-08-14T00:34:37.045Z,92.80
2022-08-14T00:41:14.546Z,93.90
2022-08-14T00:47:58.308Z,96.20
2022-08-14T00:54:43.838Z,95.90
2022-08-14T01:01:28.500Z,95.50
2022-08-14T01:08:20.694Z,96.30
2022-08-14T01:15:21.370Z,96.70
2022-08-14T01:22:18.670Z,96.90
2022-08-14T01:29:03.920Z,95.90
2022-08-14T01:36:04.030Z,95.50
2022-08-14T01:42:49.532Z,96.40
2022-08-14T01:49:35.524Z,97.80
2022-08-14T01:56:18.840Z,99.80
2022-08-14T02:03:01.672Z,99.90
2022-08-14T02:09:44.427Z,99.00
2022-08-14T02:16:54.246Z,99.80
2022-08-14T02:23:37.388Z,98.40
2022-08-14T02:30:24.747Z,99.90
2022-08-14T02:37:14.025Z,99.90
2022-08-14T02:44:00.841Z,99.20
2022-08-14T02:50:43.889Z,98.20
2022-08-14T02:57:39.825Z,99.70
2022-08-14T03:04:23.839Z,98.00
2022-08-14T03:11:10.862Z,99.90
2022-08-14T03:17:57.197Z,99.90
2022-08-14T03:24:40.744Z,99.90
2022-08-14T03:31:26.143Z,99.90
2022-08-14T03:39:13.229Z,99.90
2022-08-14T03:45:25.640Z,99.90
2022-08-14T03:52:38.064Z,99.90
2022-08-14T03:59:20.786Z,99.90
2022-08-14T04:06:04.763Z,99.90
2022-08-14T04:12:51.633Z,99.90
2022-08-14T04:19:36.530Z,99.60
2022-08-14T04:26:27.291Z,99.60
2022-08-14T04:33:24.480Z,99.90
2022-08-14T04:40:27.806Z,99.90
2022-08-14T04:47:30.989Z,99.90
2022-08-14T04:54:13.425Z,99.90
2022-08-14T05:00:59.298Z,99.90
2022-08-14T05:07:54.118Z,99.90
2022-08-14T05:14:53.110Z,99.90
2022-08-14T05:22:00.059Z,99.90
2022-08-14T05:28:44.386Z,99.30
2022-08-14T05:35:27.430Z,97.10
2022-08-14T05:42:21.481Z,93.20
2022-08-14T05:49:05.441Z,90.60
2022-08-14T05:55:52.417Z,90.90
2022-08-14T06:02:35.288Z,86.90
2022-08-14T06:09:17.679Z,83.70
2022-08-14T06:16:00.027Z,82.80
2022-08-14T06:22:44.085Z,83.40
2022-08-14T06:29:27.593Z,83.00
2022-08-14T06:36:19.288Z,80.30
2022-08-14T06:43:08.145Z,75.40
2022-08-14T06:49:57.678Z,74.30
2022-08-14T06:56:57.005Z,72.90
2022-08-14T07:04:03.683Z,70.40
2022-08-14T07:10:47.868Z,67.50
2022-08-14T07:17:31.970Z,64.80
2022-08-14T07:24:22.105Z,63.00
2022-08-14T07:31:13.659Z,62.60
2022-08-14T07:37:58.914Z,61.50
2022-08-14T07:44:46.645Z,60.50
2022-08-14T07:51:36.896Z,59.40
2022-08-14T07:58:31.770Z,58.30
2022-08-14T08:05:18.345Z,58.70
2022-08-14T08:12:09.126Z,57.20
2022-08-14T08:19:02.909Z,56.50
2022-08-14T08:25:50.027Z,56.00
2022-08-14T08:32:43.744Z,54.70
2022-08-14T08:39:30.797Z,53.50
2022-08-14T08:46:28.950Z,53.50
2022-08-14T08:53:11.306Z,51.20
2022-08-14T08:59:55.122Z,51.20
2022-08-14T09:07:00.835Z,53.50
2022-08-14T09:13:53.416Z,50.70
2022-08-14T09:20:38.792Z,51.60
2022-08-14T09:27:22.782Z,52.00
2022-08-14T09:34:27.354Z,50.80
2022-08-14T09:42:20.610Z,50.20
2022-08-14T09:48:37.789Z,49.40
2022-08-14T09:55:23.768Z,49.60
2022-08-14T10:02:31.157Z,49.60
2022-08-14T10:09:16.964Z,50.20
2022-08-14T10:16:00.227Z,49.40
2022-08-14T10:23:14.811Z,48.80
2022-08-14T10:29:49.468Z,49.10
2022-08-14T10:36:40.657Z,49.30
2022-08-14T10:43:31.900Z,48.10
2022-08-14T10:50:16.051Z,49.20
2022-08-14T10:57:20.047Z,49.20
2022-08-14T11:04:03.266Z,50.70
2022-08-14T11:10:55.738Z,51.40
2022-08-14T11:17:39.391Z,52.80
2022-08-14T11:24:50.872Z,52.70
2022-08-14T11:31:39.015Z,53.40
2022-08-14T11:38:22.139Z,53.80
2022-08-14T11:45:11.043Z,53.80
2022-08-14T11:51:59.193Z,53.60
2022-08-14T11:58:43.437Z,53.80
2022-08-14T12:05:42.209Z,53.60
2022-08-14T12:12:35.172Z,53.40
2022-08-14T12:19:17.806Z,53.50
2022-08-14T12:26:31.536Z,52.80
2022-08-14T12:33:30.583Z,51.30
2022-08-14T12:40:20.655Z,50.40
2022-08-14T12:47:13.499Z,50.70
2022-08-14T12:53:59.585Z,50.10
2022-08-14T13:01:12.623Z,50.10
2022-08-14T13:07:55.440Z,48.50
2022-08-14T13:14:38.718Z,47.70
2022-08-14T13:21:21.081Z,47.90
2022-08-14T13:28:05.077Z,47.00
2022-08-14T13:34:53.848Z,49.10
2022-08-14T13:41:38.468Z,48.70
2022-08-14T13:48:33.465Z,48.90
2022-08-14T13:55:20.479Z,47.20
2022-08-14T14:02:07.856Z,49.60
2022-08-14T14:08:55.211Z,50.00
2022-08-14T14:15:48.694Z,50.30
2022-08-14T14:23:02.253Z,49.00
2022-08-14T14:29:50.612Z,45.60
2022-08-14T14:36:40.631Z,45.40
2022-08-14T14:43:26.258Z,44.80
2022-08-14T14:50:11.344Z,45.70
2022-08-14T14:56:56.177Z,45.40
2022-08-14T15:03:39.919Z,45.00
2022-08-14T15:10:31.152Z,46.70
2022-08-14T15:17:18.672Z,45.20
2022-08-14T15:24:03.994Z,45.50
2022-08-14T15:30:57.738Z,45.80
2022-08-14T15:37:42.401Z,46.60
2022-08-14T15:44:29.904Z,47.50
2022-08-14T15:51:16.767Z,46.30
2022-08-14T15:58:03.778Z,47.80
2022-08-14T16:04:50.797Z,46.20
2022-08-14T16:11:34.274Z,46.30
2022-08-14T16:18:20.088Z,45.90
2022-08-14T16:25:03.874Z,46.30
2022-08-14T16:31:46.907Z,45.90
2022-08-14T16:38:45.462Z,45.90
2022-08-14T16:45:30.950Z,45.40
2022-08-14T16:52:25.129Z,46.30
2022-08-14T16:59:17.818Z,47.00
2022-08-14T17:06:00.646Z,48.30
2022-08-14T17:12:43.378Z,46.40
2022-08-14T17:19:40.215Z,47.00
2022-08-14T17:26:45.288Z,49.30
2022-08-14T17:33:40.731Z,50.60
2022-08-14T17:40:30.472Z,51.00
2022-08-14T17:47:18.226Z,51.50
2022-08-14T17:54:04.708Z,52.10
2022-08-14T18:00:58.283Z,56.50
2022-08-14T18:08:00.218Z,57.20
2022-08-14T18:14:52.726Z,57.20
2022-08-14T18:21:43.112Z,57.10
2022-08-14T18:28:51.717Z,55.70
2022-08-14T18:35:45.877Z,55.30
2022-08-14T18:42:45.719Z,54.20
2022-08-14T18:49:28.558Z,54.80
2022-08-14T18:56:18.398Z,54.80
2022-08-14T19:03:07.937Z,54.90
2022-08-14T19:09:54.675Z,55.50
2022-08-14T19:16:48.400Z,57.60
2022-08-14T19:23:42.885Z,55.70
2022-08-14T19:30:29.181Z,56.70
2022-08-14T19:37:15.503Z,58.30
2022-08-14T19:44:19.315Z,59.40
2022-08-14T19:51:03.851Z,59.20
2022-08-14T19:57:51.977Z,60.10
2022-08-14T20:04:46.159Z,62.00
2022-08-14T20:11:43.349Z,61.30
2022-08-14T20:18:49.913Z,61.60
2022-08-14T20:25:37.108Z,62.30
2022-08-14T20:32:59.246Z,62.90
2022-08-14T20:39:53.667Z,63.90
2022-08-14T20:46:39.383Z,64.50
2022-08-14T20:53:33.931Z,64.90
2022-08-14T21:00:38.350Z,65.40
2022-08-14T21:07:50.433Z,66.30
2022-08-14T21:14:34.252Z,66.40
2022-08-14T21:21:19.863Z,67.20
2022-08-14T21:28:09.602Z,67.90
2022-08-14T21:35:13.410Z,67.30
2022-08-14T21:41:59.432Z,67.70
2022-08-14T21:48:44.423Z,68.30
2022-08-14T21:55:26.905Z,69.00
2022-08-14T22:02:32.558Z,69.50
2022-08-14T22:09:16.536Z,72.40
2022-08-14T22:16:04.521Z,71.90
2022-08-14T22:22:47.116Z,71.30
2022-08-14T22:29:29.524Z,74.20
2022-08-14T22:36:34.247Z,77.10
2022-08-14T22:43:25.162Z,76.30
2022-08-14T22:50:30.601Z,76.30
2022-08-14T22:57:12.363Z,77.40
2022-08-14T23:03:55.119Z,77.50
2022-08-14T23:10:38.696Z,78.60
2022-08-14T23:17:21.663Z,78.70
2022-08-14T23:24:04.990Z,76.00
2022-08-14T23:30:49.027Z,75.80
2022-08-14T23:37:31.660Z,75.90
2022-08-14T23:44:15.209Z,76.30
2022-08-14T23:50:58.949Z,77.50
2022-08-14T23:57:57.904Z,79.00
